Aviation Digital Data Service (ADDS)

Output produced by METARs form (1936 UTC 25 March 2017)
found at http://www.aviationweather.gov/adds/metars/
 
LCRA 251850Z 26010KT CAVOK 16/12 Q1016 NOSIG
TAF LCRA 251917Z 2521/2615 26010KT CAVOK
       
LCEN 251920Z 28009KT CAVOK 14/11 Q1015 NOSIG RMK RWY11 29008KT
TAF LCEN 251640Z 2518/2618 28012KT CAVOK
       
LCLK 251930Z 30004KT 250V310 CAVOK 15/08 Q1016 NOSIG
TAF LCLK 251730Z 2518/2618 32006KT 9999 FEW025 
     BECMG 2608/2611 22017KT
       
LCPH 251930Z 01006KT CAVOK 10/08 Q1017
TAF LCPH 251730Z 2518/2618 35007KT 9999 FEW020 
     PROB40 2600/2610 BKN008 
     BECMG 2608/2611 24012KT
       
LCRA 251850Z 26010KT CAVOK 16/12 Q1016 NOSIG
TAF LCRA 251917Z 2521/2615 26010KT CAVOK
       
LCLK 251930Z 30004KT 250V310 CAVOK 15/08 Q1016 NOSIG
TAF LCLK 251730Z 2518/2618 32006KT 9999 FEW025 
     BECMG 2608/2611 22017KT
       
LCPH 251930Z 01006KT CAVOK 10/08 Q1017
TAF LCPH 251730Z 2518/2618 35007KT 9999 FEW020 
     PROB40 2600/2610 BKN008 
     BECMG 2608/2611 24012KT